Time;durP1;ratioP1;P1;durP2;ratioP2;P2;SDS_P1;SDS_P2;PMS_P1;PMS_P2;Temp;Humidity;BMP_temperature;BMP_pressure;BME280_temperature;BME280_humidity;BME280_pressure;Samples;Min_cycle;Max_cycle;Signal;HPM_P1;HPM_P2
2023/06/08 00:00:58;;;;;;;79.40;56.20;;;19.50;74.90;;;;;;4934593;28;89642;-71
2023/06/08 00:03:26;;;;;;;76.90;56.20;;;19.50;74.50;;;;;;4939254;28;89568;-71
2023/06/08 00:05:52;;;;;;;77.65;55.78;;;19.50;73.70;;;;;;4939718;28;89158;-72
2023/06/08 00:08:18;;;;;;;78.13;55.83;;;19.40;75.10;;;;;;4945186;28;90109;-72
2023/06/08 00:10:47;;;;;;;76.25;54.85;;;19.40;75.30;;;;;;4936005;28;89844;-72
2023/06/08 00:13:13;;;;;;;76.05;55.35;;;19.40;74.60;;;;;;4934376;28;91278;-70
2023/06/08 00:15:39;;;;;;;77.47;55.95;;;19.40;74.90;;;;;;4936337;28;91427;-72
2023/06/08 00:18:08;;;;;;;81.25;55.63;;;19.40;75.10;;;;;;4922607;28;89816;-73
2023/06/08 00:20:35;;;;;;;77.25;55.67;;;19.40;74.70;;;;;;4932668;28;91123;-72
2023/06/08 00:23:03;;;;;;;75.65;54.35;;;19.40;75.00;;;;;;4940433;28;91000;-72
2023/06/08 00:25:29;;;;;;;79.32;56.58;;;19.40;74.80;;;;;;4935510;28;89731;-71
2023/06/08 00:27:55;;;;;;;76.25;55.38;;;19.40;75.00;;;;;;4918135;28;90060;-71
2023/06/08 00:30:21;;;;;;;74.55;54.78;;;19.40;75.20;;;;;;4935659;28;89114;-71
2023/06/08 00:32:46;;;;;;;74.80;54.40;;;19.30;75.30;;;;;;4931667;28;89576;-70
2023/06/08 00:35:12;;;;;;;78.53;56.05;;;19.40;75.50;;;;;;4915442;28;90590;-71
2023/06/08 00:37:38;;;;;;;76.93;55.40;;;19.30;74.90;;;;;;4929403;28;91903;-72
2023/06/08 00:40:04;;;;;;;75.93;55.92;;;19.30;75.30;;;;;;4934778;28;95481;-71
2023/06/08 00:42:30;;;;;;;79.82;56.80;;;19.30;75.70;;;;;;4943181;28;89568;-73
2023/06/08 00:44:56;;;;;;;77.75;55.60;;;19.30;75.10;;;;;;4937641;28;89544;-71
2023/06/08 00:47:22;;;;;;;79.43;56.78;;;19.20;74.80;;;;;;4925649;28;91047;-72
2023/06/08 00:49:49;;;;;;;77.47;56.05;;;19.20;76.00;;;;;;4932345;28;89530;-72
2023/06/08 00:52:16;;;;;;;76.65;55.90;;;19.20;75.90;;;;;;4935905;28;89088;-71
2023/06/08 00:54:43;;;;;;;77.07;55.85;;;19.30;75.20;;;;;;4934244;28;89350;-71
2023/06/08 00:57:10;;;;;;;78.28;56.30;;;19.20;75.60;;;;;;4931897;28;89431;-72
2023/06/08 00:59:36;;;;;;;76.60;55.50;;;19.20;75.50;;;;;;4939072;28;89822;-72
2023/06/08 01:02:04;;;;;;;78.40;57.78;;;19.10;76.20;;;;;;4936662;28;90898;-72
2023/06/08 01:04:31;;;;;;;75.10;55.33;;;19.10;75.60;;;;;;4929678;28;89558;-71
2023/06/08 01:07:14;;;;;;;74.43;54.22;;;19.10;76.30;;;;;;4928102;28;91464;-71
2023/06/08 01:10:05;;;;;;;79.32;57.00;;;19.10;76.30;;;;;;4936581;28;89754;-71
2023/06/08 01:12:51;;;;;;;;;;;19.10;75.70;;;;;;4945153;28;90422;-72
2023/06/08 01:15:38;;;;;;;79.38;56.45;;;19.10;75.80;;;;;;4932428;28;90198;-72
2023/06/08 01:18:07;;;;;;;80.65;57.33;;;19.00;75.80;;;;;;4928251;28;89718;-73
2023/06/08 01:20:41;;;;;;;80.07;57.95;;;19.00;76.00;;;;;;4942789;28;91221;-72
2023/06/08 01:23:44;;;;;;;76.68;55.47;;;19.00;76.30;;;;;;4927762;28;90059;-72
2023/06/08 01:26:15;;;;;;;71.80;53.78;;;19.00;76.20;;;;;;4936800;28;91085;-73
2023/06/08 01:28:42;;;;;;;77.45;54.83;;;19.00;77.00;;;;;;4932177;28;90825;-71
2023/06/08 01:31:07;;;;;;;82.75;58.05;;;18.90;76.70;;;;;;4922540;28;95603;-72
2023/06/08 01:33:33;;;;;;;79.03;57.00;;;18.90;76.50;;;;;;4939413;28;90321;-71
2023/06/08 01:36:12;;;;;;;81.25;57.60;;;18.90;76.80;;;;;;4938761;28;89725;-72
2023/06/08 01:39:40;;;;;;;79.72;58.95;;;18.80;77.10;;;;;;4940080;28;90015;-72
2023/06/08 01:42:08;;;;;;;78.10;57.92;;;18.80;77.50;;;;;;4894602;28;90857;-71
2023/06/08 01:44:40;;;;;;;77.75;57.10;;;18.80;76.50;;;;;;4890159;28;90790;-69
2023/06/08 01:47:07;;;;;;;78.10;57.10;;;18.80;77.40;;;;;;4930941;28;88847;-70
2023/06/08 01:49:34;;;;;;;81.20;57.58;;;18.80;76.20;;;;;;4944347;28;89453;-72
2023/06/08 01:52:01;;;;;;;81.25;58.63;;;18.80;76.50;;;;;;4931587;28;89475;-72
2023/06/08 01:54:27;;;;;;;79.82;57.13;;;18.80;76.90;;;;;;4936643;28;90323;-74
2023/06/08 01:56:52;;;;;;;78.85;57.85;;;18.70;77.40;;;;;;4933835;28;90611;-71
2023/06/08 01:59:18;;;;;;;75.28;55.45;;;18.80;76.90;;;;;;4935757;28;89661;-74
2023/06/08 02:01:44;;;;;;;78.20;56.42;;;18.70;77.70;;;;;;4941017;28;89574;-74
2023/06/08 02:04:09;;;;;;;77.15;56.25;;;18.70;77.10;;;;;;4938195;28;91487;-74
2023/06/08 02:06:36;;;;;;;78.32;56.90;;;18.70;77.40;;;;;;4934898;28;89424;-74
2023/06/08 02:09:01;;;;;;;76.43;55.55;;;18.70;77.00;;;;;;4941385;28;95863;-73
2023/06/08 02:11:27;;;;;;;77.22;56.13;;;18.70;77.80;;;;;;4935506;28;88834;-74
2023/06/08 02:13:52;;;;;;;77.22;56.75;;;18.70;77.80;;;;;;4933751;28;89441;-74
2023/06/08 02:16:18;;;;;;;78.50;55.97;;;18.70;77.80;;;;;;4931159;28;89298;-74
2023/06/08 02:18:45;;;;;;;75.68;55.92;;;18.70;77.70;;;;;;4928838;28;92040;-74
2023/06/08 02:21:11;;;;;;;78.35;57.30;;;18.60;77.90;;;;;;4934359;28;89904;-74
2023/06/08 02:23:38;;;;;;;77.32;56.25;;;18.60;77.20;;;;;;4916927;28;90271;-72
2023/06/08 02:26:07;;;;;;;79.85;56.42;;;18.60;77.30;;;;;;4928847;28;90747;-73
2023/06/08 02:28:34;;;;;;;78.63;57.83;;;18.60;78.20;;;;;;4926717;28;94044;-73
2023/06/08 02:31:00;;;;;;;80.10;57.10;;;18.60;77.40;;;;;;4924455;28;90006;-74
2023/06/08 02:33:27;;;;;;;80.35;57.50;;;18.60;77.20;;;;;;4908957;28;89667;-72
2023/06/08 02:35:53;;;;;;;74.70;55.58;;;18.60;77.10;;;;;;4923824;28;89576;-72
2023/06/08 02:38:19;;;;;;;80.63;57.92;;;18.50;78.20;;;;;;4928334;28;90297;-74
2023/06/08 02:40:45;;;;;;;77.03;56.58;;;18.50;77.60;;;;;;4920470;28;89461;-74
2023/06/08 02:43:10;;;;;;;74.35;54.67;;;18.50;78.00;;;;;;4926174;28;90710;-72
2023/06/08 02:45:37;;;;;;;78.85;57.45;;;18.50;78.20;;;;;;4928506;28;92017;-74
2023/06/08 02:48:03;;;;;;;76.65;56.50;;;18.50;78.20;;;;;;4930142;28;92509;-73
2023/06/08 02:50:29;;;;;;;76.03;56.65;;;18.40;77.70;;;;;;4927871;28;90111;-74
2023/06/08 02:52:54;;;;;;;77.63;57.03;;;18.40;78.20;;;;;;4930513;28;89765;-74
2023/06/08 02:55:20;;;;;;;77.90;56.65;;;18.40;77.80;;;;;;4924943;28;89347;-71
2023/06/08 02:57:49;;;;;;;76.88;56.25;;;18.40;78.80;;;;;;4930137;28;90136;-74
2023/06/08 03:00:15;;;;;;;77.55;56.67;;;18.40;78.10;;;;;;4934498;28;94087;-74
2023/06/08 03:02:41;;;;;;;77.85;57.05;;;18.30;77.80;;;;;;4928646;28;89696;-72
2023/06/08 03:05:07;;;;;;;77.25;56.28;;;18.40;78.10;;;;;;4932564;28;90424;-74
2023/06/08 03:07:36;;;;;;;77.05;57.13;;;18.30;78.00;;;;;;4925457;28;95205;-71
2023/06/08 03:10:02;;;;;;;77.75;56.80;;;18.40;77.80;;;;;;4935382;28;90133;-73
2023/06/08 03:12:29;;;;;;;76.50;56.10;;;18.30;78.60;;;;;;4930727;28;94801;-75
2023/06/08 03:14:55;;;;;;;76.65;56.17;;;18.20;77.80;;;;;;4932301;28;89835;-75
2023/06/08 03:17:21;;;;;;;75.88;56.33;;;18.30;78.70;;;;;;4929164;28;90876;-75
2023/06/08 03:19:47;;;;;;;73.72;54.53;;;18.30;78.60;;;;;;4928273;28;90430;-73
2023/06/08 03:22:13;;;;;;;73.43;54.75;;;18.30;78.40;;;;;;4919282;28;89329;-74
2023/06/08 03:24:38;;;;;;;75.72;55.58;;;18.20;78.60;;;;;;4937191;28;89471;-74
2023/06/08 03:27:07;;;;;;;73.35;54.67;;;18.20;79.00;;;;;;4936234;28;89517;-74
2023/06/08 03:29:33;;;;;;;74.97;55.25;;;18.30;78.40;;;;;;4943971;28;89636;-74
2023/06/08 03:31:59;;;;;;;75.85;55.55;;;18.30;78.90;;;;;;4923390;28;90502;-75
2023/06/08 03:34:26;;;;;;;77.45;55.95;;;18.30;79.00;;;;;;4935631;28;89662;-72
2023/06/08 03:36:53;;;;;;;76.45;56.10;;;18.30;78.40;;;;;;4938159;28;89781;-72
2023/06/08 03:39:18;;;;;;;74.30;55.53;;;18.30;79.00;;;;;;4942177;28;90220;-73
2023/06/08 03:41:45;;;;;;;75.35;55.75;;;18.20;78.70;;;;;;4935240;28;89512;-72
2023/06/08 03:44:10;;;;;;;77.38;55.03;;;18.20;78.50;;;;;;4933284;28;90076;-74
2023/06/08 03:46:36;;;;;;;73.22;54.35;;;18.20;79.10;;;;;;4937110;28;90668;-72
2023/06/08 03:49:01;;;;;;;74.68;54.88;;;18.20;79.00;;;;;;4940354;28;90709;-74
2023/06/08 03:51:27;;;;;;;75.20;55.30;;;18.20;78.00;;;;;;4932020;28;89516;-72
2023/06/08 03:53:53;;;;;;;75.95;55.80;;;18.20;78.90;;;;;;4922251;28;89103;-74
2023/06/08 03:56:19;;;;;;;76.22;55.67;;;18.20;78.10;;;;;;4936724;28;95584;-74
2023/06/08 03:58:45;;;;;;;73.53;54.85;;;18.20;78.90;;;;;;4938609;28;89768;-74
2023/06/08 04:01:11;;;;;;;75.57;55.80;;;18.10;78.30;;;;;;4934523;28;89855;-74
2023/06/08 04:03:38;;;;;;;73.70;55.17;;;18.10;77.90;;;;;;4943165;28;89789;-73
2023/06/08 04:06:05;;;;;;;74.05;54.92;;;18.10;79.00;;;;;;4938357;28;90354;-72
2023/06/08 04:08:32;;;;;;;75.95;55.75;;;18.10;78.50;;;;;;4938767;28;89309;-72
2023/06/08 04:11:01;;;;;;;78.00;55.72;;;18.10;78.20;;;;;;4917023;28;89486;-74
2023/06/08 04:13:27;;;;;;;76.50;55.83;;;18.20;78.20;;;;;;4931595;28;88526;-73
2023/06/08 04:15:53;;;;;;;74.93;55.38;;;18.10;77.50;;;;;;4924751;28;92339;-73
2023/06/08 04:18:18;;;;;;;74.00;55.38;;;18.20;78.50;;;;;;4941157;28;89556;-74
2023/06/08 04:20:45;;;;;;;74.05;55.13;;;18.20;78.00;;;;;;4934171;28;90055;-72
2023/06/08 04:23:11;;;;;;;73.13;54.70;;;18.20;78.50;;;;;;4919701;28;91451;-74
2023/06/08 04:25:37;;;;;;;74.45;54.55;;;18.20;78.60;;;;;;4920135;28;91623;-73
2023/06/08 04:28:03;;;;;;;73.18;55.08;;;18.20;78.60;;;;;;4936798;28;89109;-73
2023/06/08 04:30:29;;;;;;;74.72;54.30;;;18.10;76.80;;;;;;4921849;28;89902;-72
2023/06/08 04:32:55;;;;;;;74.47;54.65;;;18.10;78.20;;;;;;4939484;28;89516;-72
2023/06/08 04:35:21;;;;;;;77.30;55.95;;;18.10;77.90;;;;;;4925013;28;91594;-74
2023/06/08 04:37:47;;;;;;;75.13;56.15;;;18.10;77.30;;;;;;4945017;28;89228;-73
2023/06/08 04:40:13;;;;;;;74.68;55.25;;;18.20;77.60;;;;;;4939280;28;89563;-72
2023/06/08 04:42:40;;;;;;;74.57;55.00;;;18.20;77.50;;;;;;4938433;28;89719;-74
2023/06/08 04:45:08;;;;;;;71.75;54.28;;;18.30;77.40;;;;;;4935639;28;90672;-73
2023/06/08 04:47:37;;;;;;;75.25;55.30;;;18.30;77.90;;;;;;4929219;28;92211;-74
2023/06/08 04:50:08;;;;;;;74.95;54.95;;;18.30;76.60;;;;;;4938206;28;90550;-73
2023/06/08 04:52:40;;;;;;;71.30;53.78;;;18.30;77.40;;;;;;4934241;28;89416;-73
2023/06/08 04:55:06;;;;;;;;;;;18.30;77.60;;;;;;4919298;28;91373;-74
2023/06/08 04:57:32;;;;;;;75.63;55.03;;;18.30;78.40;;;;;;4928855;28;89706;-74
2023/06/08 04:59:59;;;;;;;73.10;54.42;;;18.30;76.60;;;;;;4936848;28;89617;-74
2023/06/08 05:02:25;;;;;;;74.30;55.05;;;18.30;76.20;;;;;;4934701;28;88830;-74
2023/06/08 05:04:50;;;;;;;71.10;53.45;;;18.30;76.30;;;;;;4944118;28;89852;-75
2023/06/08 05:07:16;;;;;;;74.78;54.60;;;18.40;78.50;;;;;;4944165;28;89850;-76
2023/06/08 05:09:42;;;;;;;72.80;53.53;;;18.40;76.10;;;;;;4936670;28;90255;-73
2023/06/08 05:12:08;;;;;;;73.65;54.25;;;18.50;76.80;;;;;;4938854;28;89330;-76
2023/06/08 05:14:33;;;;;;;74.53;54.85;;;18.50;78.10;;;;;;4936282;28;89799;-76
2023/06/08 05:16:59;;;;;;;75.35;54.30;;;18.50;76.80;;;;;;4944150;28;89521;-75
2023/06/08 05:19:25;;;;;;;72.80;54.15;;;18.50;75.60;;;;;;4934178;28;94470;-73
2023/06/08 05:21:50;;;;;;;75.70;54.30;;;18.50;77.60;;;;;;4933342;28;89174;-75
2023/06/08 05:26:44;;;;;;;75.65;54.38;;;18.60;76.50;;;;;;4948361;28;89258;-55
2023/06/08 05:29:10;;;;;;;73.78;54.13;;;18.60;75.10;;;;;;4958620;28;90244;-55
2023/06/08 05:31:38;;;;;;;73.35;53.25;;;18.60;76.00;;;;;;4944863;28;89969;-46
2023/06/08 05:34:05;;;;;;;74.20;53.55;;;18.60;76.50;;;;;;4951064;28;91690;-55
2023/06/08 05:36:31;;;;;;;75.95;53.67;;;18.70;76.80;;;;;;4947618;28;98011;-48
2023/06/08 05:38:56;;;;;;;77.88;54.85;;;18.70;76.80;;;;;;4948959;28;90163;-53
2023/06/08 05:41:22;;;;;;;80.07;56.40;;;18.70;75.00;;;;;;4956552;28;90532;-55
2023/06/08 05:43:48;;;;;;;77.60;56.83;;;18.60;75.30;;;;;;4953922;28;89583;-55
2023/06/08 05:46:15;;;;;;;78.65;58.00;;;18.70;74.30;;;;;;4955871;28;90212;-52
2023/06/08 05:48:41;;;;;;;84.40;58.35;;;18.70;74.30;;;;;;4946133;28;90105;-49
2023/06/08 05:51:06;;;;;;;82.30;59.45;;;18.70;74.20;;;;;;4939199;28;88924;-51
2023/06/08 05:53:32;;;;;;;90.93;59.40;;;18.70;74.70;;;;;;4959041;28;89221;-47
2023/06/08 05:55:58;;;;;;;87.45;59.33;;;18.70;74.70;;;;;;4962419;28;90288;-55
2023/06/08 05:58:24;;;;;;;82.72;56.65;;;18.70;74.60;;;;;;4962765;28;90519;-50
2023/06/08 06:00:52;;;;;;;80.97;58.58;;;18.70;72.90;;;;;;4948812;28;95210;-51
2023/06/08 06:03:19;;;;;;;84.00;57.75;;;18.70;74.80;;;;;;4956505;28;90623;-54
2023/06/08 06:05:45;;;;;;;82.47;57.85;;;18.90;74.10;;;;;;4956668;28;90224;-56
2023/06/08 06:08:11;;;;;;;82.95;59.08;;;18.80;73.40;;;;;;4958193;28;89373;-45
2023/06/08 06:10:36;;;;;;;81.60;59.28;;;18.90;73.10;;;;;;4961512;28;89677;-49
2023/06/08 06:13:02;;;;;;;87.25;59.25;;;18.90;73.00;;;;;;4957530;28;89389;-52
2023/06/08 06:15:28;;;;;;;82.18;58.90;;;18.90;72.80;;;;;;4965879;28;89232;-51
2023/06/08 06:17:54;;;;;;;82.93;57.25;;;18.90;72.80;;;;;;4959302;28;89516;-54
2023/06/08 06:20:20;;;;;;;84.32;59.75;;;18.90;71.90;;;;;;4957033;28;89489;-51
2023/06/08 06:22:45;;;;;;;83.82;58.95;;;18.80;72.80;;;;;;4948015;28;90672;-47
2023/06/08 06:25:11;;;;;;;84.35;58.58;;;18.90;73.00;;;;;;4939081;28;90918;-45
2023/06/08 06:27:37;;;;;;;88.38;61.35;;;18.80;73.10;;;;;;4952974;28;90018;-43
2023/06/08 06:30:03;;;;;;;84.93;60.50;;;19.00;72.40;;;;;;4950312;28;90685;-41
2023/06/08 06:32:29;;;;;;;85.97;61.42;;;19.10;71.80;;;;;;4959265;28;89940;-42
2023/06/08 06:34:54;;;;;;;84.10;60.63;;;19.10;71.90;;;;;;4938620;28;90953;-42
2023/06/08 06:37:22;;;;;;;87.80;61.10;;;19.10;71.80;;;;;;4942795;28;89517;-42
2023/06/08 06:39:47;;;;;;;88.00;61.03;;;19.10;72.50;;;;;;4947302;28;89575;-41
2023/06/08 06:42:15;;;;;;;89.28;60.58;;;19.00;73.10;;;;;;4941093;28;91170;-42
2023/06/08 06:44:40;;;;;;;86.07;61.20;;;18.90;73.20;;;;;;4941767;28;90201;-42
2023/06/08 06:47:06;;;;;;;85.35;61.17;;;19.00;71.90;;;;;;4955889;28;91093;-41
2023/06/08 06:49:32;;;;;;;85.68;60.03;;;18.90;73.00;;;;;;4953428;28;89440;-42
2023/06/08 06:51:57;;;;;;;88.00;60.38;;;18.80;73.80;;;;;;4937993;28;91361;-44
2023/06/08 06:54:23;;;;;;;85.65;62.10;;;18.90;74.00;;;;;;4952306;28;89703;-43
2023/06/08 06:56:49;;;;;;;89.15;60.78;;;18.90;72.80;;;;;;4960098;28;89527;-42
2023/06/08 06:59:14;;;;;;;91.15;62.40;;;18.70;74.20;;;;;;4961954;28;89698;-42
2023/06/08 07:01:41;;;;;;;88.22;61.33;;;18.80;73.70;;;;;;4953830;28;90164;-40
2023/06/08 07:04:07;;;;;;;85.53;61.40;;;18.80;74.10;;;;;;4948454;28;90252;-40
2023/06/08 07:06:33;;;;;;;85.85;60.45;;;18.80;75.10;;;;;;4948350;28;90597;-43
2023/06/08 07:08:58;;;;;;;83.57;61.28;;;19.10;74.00;;;;;;4952457;28;89530;-43
2023/06/08 07:11:24;;;;;;;89.95;61.30;;;19.20;73.10;;;;;;4927723;28;90258;-39
2023/06/08 07:13:50;;;;;;;90.85;61.47;;;19.10;73.60;;;;;;4950142;28;90437;-41
2023/06/08 07:16:16;;;;;;;88.88;61.65;;;19.00;73.10;;;;;;4953850;28;90592;-43
2023/06/08 07:18:41;;;;;;;86.75;61.50;;;19.00;74.60;;;;;;4947570;28;90540;-41
2023/06/08 07:21:07;;;;;;;85.45;60.47;;;19.00;73.40;;;;;;4949002;28;90251;-42
2023/06/08 07:23:33;;;;;;;88.07;61.85;;;19.10;73.90;;;;;;4947869;28;90377;-42
2023/06/08 07:25:58;;;;;;;89.68;62.10;;;19.30;73.20;;;;;;4942993;28;90110;-40
2023/06/08 07:28:25;;;;;;;87.18;62.17;;;19.50;71.80;;;;;;4954246;28;88616;-40
2023/06/08 07:30:50;;;;;;;90.28;61.75;;;19.40;72.40;;;;;;4946764;28;90194;-41
2023/06/08 07:33:17;;;;;;;86.47;61.28;;;19.40;72.30;;;;;;4951567;28;89573;-39
2023/06/08 07:35:43;;;;;;;91.65;62.95;;;19.40;72.90;;;;;;4948543;28;91196;-43
2023/06/08 07:38:08;;;;;;;88.00;63.15;;;19.30;72.70;;;;;;4958042;28;89530;-42
2023/06/08 07:40:34;;;;;;;85.75;61.75;;;19.30;72.90;;;;;;4957330;28;91238;-43
2023/06/08 07:43:00;;;;;;;88.32;61.75;;;19.30;73.50;;;;;;4950136;28;89918;-42
2023/06/08 07:45:27;;;;;;;86.20;61.08;;;19.00;72.90;;;;;;4961854;28;89195;-43
2023/06/08 07:47:52;;;;;;;89.35;61.78;;;18.80;75.10;;;;;;4960523;28;91208;-44
2023/06/08 07:50:20;;;;;;;84.90;62.08;;;19.20;74.20;;;;;;4953714;28;90287;-41
2023/06/08 07:52:45;;;;;;;88.53;60.75;;;19.40;72.40;;;;;;4937282;28;90801;-42
2023/06/08 07:55:11;;;;;;;84.88;60.80;;;19.50;73.10;;;;;;4950925;28;89793;-43
2023/06/08 07:57:37;;;;;;;90.88;63.13;;;19.60;72.80;;;;;;4954180;28;89892;-44
2023/06/08 08:00:05;;;;;;;87.97;61.30;;;19.60;72.10;;;;;;4947692;28;91280;-40
2023/06/08 08:02:31;;;;;;;88.80;61.13;;;19.70;72.30;;;;;;4951448;28;90161;-45
2023/06/08 08:04:57;;;;;;;88.40;62.67;;;19.70;71.90;;;;;;4958263;28;94852;-40
2023/06/08 08:07:22;;;;;;;90.15;61.10;;;19.60;72.10;;;;;;4948205;28;89914;-43
2023/06/08 08:09:48;;;;;;;91.00;62.30;;;19.80;73.00;;;;;;4950715;28;89383;-42
2023/06/08 08:12:14;;;;;;;87.40;61.90;;;19.70;71.60;;;;;;4947361;28;90665;-42
2023/06/08 08:14:41;;;;;;;93.38;62.65;;;19.80;72.20;;;;;;4943552;28;89618;-43
2023/06/08 08:17:08;;;;;;;86.40;62.65;;;19.90;71.40;;;;;;4944652;28;89802;-42
2023/06/08 08:19:33;;;;;;;89.93;62.45;;;19.90;71.50;;;;;;4937154;28;90540;-42
2023/06/08 08:21:59;;;;;;;88.63;62.38;;;19.80;72.30;;;;;;4947082;28;90116;-40
2023/06/08 08:24:25;;;;;;;85.85;61.53;;;19.90;71.90;;;;;;4948411;28;90825;-41
2023/06/08 08:26:55;;;;;;;89.65;63.15;;;19.90;71.90;;;;;;4950105;28;90136;-41
2023/06/08 08:29:20;;;;;;;95.28;63.50;;;19.90;71.30;;;;;;4946955;28;89685;-45
2023/06/08 08:31:46;;;;;;;88.78;61.72;;;20.00;71.30;;;;;;4946501;28;90760;-43
2023/06/08 08:34:12;;;;;;;87.35;60.05;;;20.10;71.50;;;;;;4931750;28;90087;-43
2023/06/08 08:36:38;;;;;;;87.15;60.97;;;20.10;71.40;;;;;;4951592;28;89584;-45
2023/06/08 08:39:04;;;;;;;85.40;60.85;;;20.20;71.50;;;;;;4951377;28;91802;-40
2023/06/08 08:41:31;;;;;;;91.82;62.53;;;20.30;71.20;;;;;;4948247;28;89324;-44
2023/06/08 08:44:03;;;;;;;87.07;61.50;;;20.40;70.90;;;;;;4947900;28;90840;-42
2023/06/08 08:46:37;;;;;;;85.25;60.80;;;20.40;70.60;;;;;;4932684;28;90334;-44
2023/06/08 08:49:15;;;;;;;88.60;61.08;;;20.40;70.00;;;;;;4951650;28;92242;-43
2023/06/08 08:51:43;;;;;;;88.60;61.40;;;20.50;70.70;;;;;;4952013;28;94302;-43
2023/06/08 08:54:12;;;;;;;90.22;63.20;;;20.60;69.50;;;;;;4946099;28;91329;-44
2023/06/08 08:56:38;;;;;;;89.38;61.85;;;20.60;69.30;;;;;;4946157;28;90568;-42
2023/06/08 08:59:05;;;;;;;87.50;60.80;;;20.60;69.20;;;;;;4948416;28;89597;-42
2023/06/08 09:01:32;;;;;;;90.00;63.13;;;20.60;69.80;;;;;;4952419;28;89897;-43
2023/06/08 09:04:00;;;;;;;86.32;61.20;;;20.70;69.10;;;;;;4948046;28;94897;-45
2023/06/08 09:06:29;;;;;;;89.88;62.30;;;20.70;69.70;;;;;;4947822;28;92032;-43
2023/06/08 09:08:55;;;;;;;88.63;62.03;;;20.80;69.30;;;;;;4919782;28;90834;-41
2023/06/08 09:11:21;;;;;;;86.88;61.60;;;20.70;69.20;;;;;;4943333;28;90375;-43
2023/06/08 09:13:47;;;;;;;88.57;60.78;;;20.80;68.60;;;;;;4949165;28;91318;-42
2023/06/08 09:16:16;;;;;;;87.95;60.05;;;20.90;69.10;;;;;;4945360;28;91330;-43
2023/06/08 09:18:43;;;;;;;89.72;61.58;;;20.90;69.30;;;;;;4947766;28;89882;-41
2023/06/08 09:21:29;;;;;;;90.18;61.58;;;20.90;68.70;;;;;;4954815;28;89980;-43
2023/06/08 09:24:07;;;;;;;87.93;60.45;;;20.90;68.80;;;;;;4950585;28;90805;-45
2023/06/08 09:26:33;;;;;;;88.53;61.17;;;21.00;68.40;;;;;;4927736;28;89691;-41
2023/06/08 09:29:03;;;;;;;90.13;61.47;;;21.00;68.50;;;;;;4948088;28;89988;-43
2023/06/08 09:31:29;;;;;;;90.65;61.45;;;21.10;68.60;;;;;;4948100;28;89948;-42
2023/06/08 09:34:06;;;;;;;93.70;64.00;;;21.10;68.60;;;;;;4948387;28;91471;-41
2023/06/08 09:36:36;;;;;;;86.47;61.05;;;21.20;67.90;;;;;;4929214;28;90827;-42
2023/06/08 09:39:11;;;;;;;89.20;62.53;;;21.20;68.70;;;;;;4946259;28;90816;-42
2023/06/08 09:41:54;;;;;;;87.68;61.90;;;21.30;68.00;;;;;;4946274;28;91941;-42
2023/06/08 09:44:20;;;;;;;88.50;61.65;;;21.40;67.90;;;;;;4918667;28;89633;-40
2023/06/08 09:46:46;;;;;;;90.20;62.08;;;21.50;68.40;;;;;;4949117;28;91473;-43
2023/06/08 09:49:16;;;;;;;89.75;60.55;;;21.60;67.70;;;;;;4945713;28;93385;-42
2023/06/08 09:51:47;;;;;;;85.45;59.72;;;21.60;67.10;;;;;;4950445;28;89546;-43
2023/06/08 09:54:16;;;;;;;87.80;61.80;;;21.70;67.50;;;;;;4948812;28;89536;-40
2023/06/08 09:56:47;;;;;;;87.30;60.53;;;21.60;67.00;;;;;;4948749;28;88535;-42
2023/06/08 09:59:16;;;;;;;89.35;61.45;;;21.60;67.20;;;;;;4945348;28;90080;-43
2023/06/08 10:01:48;;;;;;;90.63;58.95;;;21.70;66.30;;;;;;4951150;28;90193;-44
2023/06/08 10:04:26;;;;;;;87.22;59.17;;;21.80;66.70;;;;;;4940559;28;92312;-45
2023/06/08 10:07:02;;;;;;;85.57;59.55;;;21.80;66.90;;;;;;4933825;28;90546;-46
2023/06/08 10:09:31;;;;;;;88.10;60.13;;;21.80;66.40;;;;;;4922014;28;90925;-41
2023/06/08 10:12:00;;;;;;;88.72;59.85;;;21.90;65.90;;;;;;4935456;28;97781;-44
2023/06/08 10:14:27;;;;;;;90.20;62.55;;;21.90;66.30;;;;;;4947836;28;90140;-42
2023/06/08 10:16:55;;;;;;;87.70;60.40;;;21.80;65.60;;;;;;4944406;28;89765;-44
2023/06/08 10:19:21;;;;;;;87.07;60.63;;;21.90;66.20;;;;;;4943694;28;90634;-43
2023/06/08 10:21:48;;;;;;;88.05;60.10;;;21.90;65.90;;;;;;4948022;28;89770;-42
2023/06/08 10:24:16;;;;;;;86.57;59.33;;;22.00;66.20;;;;;;4932092;28;90569;-42
2023/06/08 10:26:41;;;;;;;88.53;60.47;;;22.10;66.30;;;;;;4941117;28;93351;-45
2023/06/08 10:29:10;;;;;;;89.93;61.45;;;22.10;66.40;;;;;;4946146;28;92010;-44
2023/06/08 10:31:39;;;;;;;90.53;61.22;;;22.20;65.40;;;;;;4948007;28;91338;-42
2023/06/08 10:34:12;;;;;;;88.30;59.17;;;22.30;65.40;;;;;;4943348;28;89439;-42
2023/06/08 10:36:40;;;;;;;93.45;61.30;;;22.30;65.60;;;;;;4944535;28;91215;-43
2023/06/08 10:39:12;;;;;;;86.22;60.05;;;22.30;64.30;;;;;;4954025;28;94859;-42
2023/06/08 10:41:56;;;;;;;84.25;58.97;;;22.40;64.50;;;;;;4951931;28;90090;-45
2023/06/08 10:44:29;;;;;;;85.55;60.72;;;22.40;64.60;;;;;;4935163;28;89539;-42
2023/06/08 10:47:05;;;;;;;86.45;58.72;;;22.50;63.60;;;;;;4951288;28;89303;-42
2023/06/08 10:49:33;;;;;;;82.40;57.35;;;22.50;64.90;;;;;;4949163;28;89762;-42
2023/06/08 10:52:01;;;;;;;89.40;60.35;;;22.50;64.80;;;;;;4950397;28;90131;-45
2023/06/08 10:54:28;;;;;;;86.07;58.05;;;22.60;63.00;;;;;;4952738;28;95835;-43
2023/06/08 10:57:03;;;;;;;89.85;60.38;;;22.60;63.90;;;;;;4952393;28;89609;-42
2023/06/08 10:59:37;;;;;;;84.18;58.38;;;22.60;62.20;;;;;;4952355;28;90602;-41
2023/06/08 11:02:06;;;;;;;85.97;58.92;;;22.70;63.10;;;;;;4952339;28;89936;-43
2023/06/08 11:04:33;;;;;;;87.53;59.80;;;22.70;63.50;;;;;;4949289;28;90381;-41
2023/06/08 11:07:04;;;;;;;82.63;58.58;;;22.70;63.30;;;;;;4952543;28;89979;-41
2023/06/08 11:09:35;;;;;;;89.30;60.85;;;22.80;62.60;;;;;;4945860;28;89503;-43
2023/06/08 11:12:01;;;;;;;84.13;58.28;;;22.90;61.20;;;;;;4948588;28;89007;-42
2023/06/08 11:14:27;;;;;;;88.55;59.10;;;22.80;62.80;;;;;;4946020;28;89726;-43
2023/06/08 11:16:54;;;;;;;84.22;59.15;;;22.90;61.80;;;;;;4951145;28;91020;-43
2023/06/08 11:19:22;;;;;;;88.72;58.90;;;22.90;62.20;;;;;;4957849;28;91050;-46
2023/06/08 11:21:51;;;;;;;82.20;56.58;;;22.90;62.10;;;;;;4957058;28;92937;-44
2023/06/08 11:24:17;;;;;;;84.60;58.88;;;23.00;62.80;;;;;;4935968;28;90580;-43
2023/06/08 11:26:43;;;;;;;84.90;59.15;;;23.00;61.30;;;;;;4921617;28;89693;-44
2023/06/08 11:29:09;;;;;;;87.13;60.88;;;23.00;60.90;;;;;;4933694;28;90973;-44
2023/06/08 11:31:42;;;;;;;85.55;59.38;;;23.10;60.10;;;;;;4949184;28;90111;-44
2023/06/08 11:34:13;;;;;;;83.18;57.55;;;23.10;60.60;;;;;;4951908;28;94070;-43
2023/06/08 11:36:39;;;;;;;82.50;58.20;;;23.20;61.90;;;;;;4953345;28;88790;-42
2023/06/08 11:39:09;;;;;;;83.35;57.22;;;23.20;61.50;;;;;;4948442;28;90345;-44
2023/06/08 11:41:35;;;;;;;79.35;56.67;;;23.20;61.80;;;;;;4950115;28;90409;-43
2023/06/08 11:44:01;;;;;;;84.15;57.53;;;23.20;62.30;;;;;;4951749;28;91970;-43
2023/06/08 11:46:28;;;;;;;83.60;57.17;;;23.30;62.00;;;;;;4952773;28;89992;-44
2023/06/08 11:49:07;;;;;;;83.70;59.33;;;23.30;61.70;;;;;;4949257;28;90480;-42
2023/06/08 11:51:33;;;;;;;81.40;57.20;;;23.30;61.00;;;;;;4951433;28;90256;-44
2023/06/08 11:53:58;;;;;;;85.80;58.90;;;23.30;61.60;;;;;;4956573;28;90145;-46
2023/06/08 11:56:25;;;;;;;83.05;57.15;;;23.40;60.90;;;;;;4952794;28;90153;-41
2023/06/08 11:58:53;;;;;;;84.93;58.03;;;23.40;61.50;;;;;;4943760;28;90634;-43
2023/06/08 12:01:19;;;;;;;82.82;58.15;;;23.40;61.50;;;;;;4955274;28;89580;-47
2023/06/08 12:03:46;;;;;;;82.75;57.78;;;23.50;61.40;;;;;;4953824;28;90468;-45
2023/06/08 12:06:14;;;;;;;83.75;58.22;;;23.50;60.40;;;;;;4950654;28;89656;-45
2023/06/08 12:08:41;;;;;;;84.57;58.05;;;23.50;60.70;;;;;;4955153;28;91224;-43
2023/06/08 12:11:09;;;;;;;82.55;58.13;;;23.60;60.10;;;;;;4950070;28;90895;-44
2023/06/08 12:13:35;;;;;;;86.55;59.60;;;23.60;60.40;;;;;;4953118;28;90205;-41
2023/06/08 12:16:05;;;;;;;89.30;59.50;;;23.70;60.70;;;;;;4936348;28;89994;-43
2023/06/08 12:18:40;;;;;;;81.10;56.60;;;23.70;59.60;;;;;;4950750;28;90501;-42
2023/06/08 12:21:10;;;;;;;82.53;57.88;;;23.70;60.60;;;;;;4933442;28;94729;-43
2023/06/08 12:23:36;;;;;;;85.45;58.20;;;23.70;60.50;;;;;;4950478;28;90590;-44
2023/06/08 12:26:02;;;;;;;86.05;60.30;;;23.70;60.30;;;;;;4953742;28;93657;-46
2023/06/08 12:28:28;;;;;;;84.05;57.92;;;23.70;59.50;;;;;;4951621;28;90955;-43
2023/06/08 12:30:57;;;;;;;83.93;57.88;;;23.70;60.50;;;;;;4947554;28;96073;-44
2023/06/08 12:33:24;;;;;;;80.75;57.30;;;23.80;60.50;;;;;;4956399;28;90984;-43